createdAt,value
2023-05-15T00:01:46.539Z,96924.78
2023-05-15T00:04:48.028Z,96921.41
2023-05-15T00:07:49.518Z,96924.25
2023-05-15T00:11:00.757Z,96927.59
2023-05-15T00:14:02.762Z,96925.50
2023-05-15T00:17:04.326Z,96926.78
2023-05-15T00:20:07.457Z,96917.38
2023-05-15T00:23:09.774Z,96919.31
2023-05-15T00:26:11.250Z,96925.91
2023-05-15T00:29:12.703Z,96921.66
2023-05-15T00:32:14.127Z,96913.28
2023-05-15T00:35:15.558Z,96926.03
2023-05-15T00:38:16.927Z,96916.06
2023-05-15T00:41:18.638Z,96915.84
2023-05-15T00:44:21.801Z,96909.41
2023-05-15T00:47:24.147Z,96908.38
2023-05-15T00:50:26.875Z,96902.66
2023-05-15T00:53:28.944Z,96898.75
2023-05-15T00:56:32.799Z,96900.22
2023-05-15T00:59:34.949Z,96900.81
2023-05-15T01:02:37.194Z,96887.38
2023-05-15T01:05:38.748Z,96897.22
2023-05-15T01:08:46.057Z,96885.41
2023-05-15T01:11:50.878Z,96886.28
2023-05-15T01:14:52.339Z,96892.53
2023-05-15T01:17:53.813Z,96894.78
2023-05-15T01:21:02.965Z,96897.41
2023-05-15T01:24:34.868Z,96901.06
2023-05-15T01:27:43.676Z,96892.72
2023-05-15T01:30:47.780Z,96891.28
2023-05-15T01:33:54.744Z,96907.72
2023-05-15T01:36:59.486Z,96903.50
2023-05-15T01:40:09.002Z,96908.06
2023-05-15T01:43:16.140Z,96902.66
2023-05-15T01:46:20.184Z,96897.84
2023-05-15T01:49:26.372Z,96902.31
2023-05-15T01:52:41.384Z,96903.31
2023-05-15T01:55:43.602Z,96888.09
2023-05-15T01:58:48.091Z,96890.31
2023-05-15T02:01:51.372Z,96893.69
2023-05-15T02:04:53.531Z,96892.28
2023-05-15T02:07:56.020Z,96902.16
2023-05-15T02:11:00.758Z,96898.03
2023-05-15T02:14:03.285Z,96903.19
2023-05-15T02:17:04.865Z,96891.91
2023-05-15T02:20:07.657Z,96894.41
2023-05-15T02:23:09.144Z,96897.88
2023-05-15T02:26:13.745Z,96900.38
2023-05-15T02:29:46.026Z,96899.94
2023-05-15T02:32:59.466Z,96898.72
2023-05-15T02:36:09.055Z,96900.06
2023-05-15T02:39:11.726Z,96908.50
2023-05-15T02:42:15.907Z,96907.81
2023-05-15T02:45:17.848Z,96906.50
2023-05-15T02:48:19.939Z,96904.81
2023-05-15T02:51:22.031Z,96894.41
2023-05-15T02:54:23.749Z,96889.44
2023-05-15T02:57:25.308Z,96890.03
2023-05-15T03:00:26.816Z,96898.75
2023-05-15T03:03:28.320Z,96898.97
2023-05-15T03:06:31.502Z,96903.03
2023-05-15T03:09:32.986Z,96904.78
2023-05-15T03:12:34.849Z,96898.72
2023-05-15T03:15:36.616Z,96889.75
2023-05-15T03:18:38.245Z,96894.94
2023-05-15T03:21:39.709Z,96902.50
2023-05-15T03:24:41.277Z,96886.31
2023-05-15T03:27:42.694Z,96895.53
2023-05-15T03:30:45.140Z,96895.44
2023-05-15T03:33:49.777Z,96890.13
2023-05-15T03:36:51.245Z,96902.63
2023-05-15T03:39:52.715Z,96896.75
2023-05-15T03:42:54.217Z,96895.94
2023-05-15T03:45:55.735Z,96904.19
2023-05-15T03:48:58.498Z,96893.69
2023-05-15T03:52:01.204Z,96885.00
2023-05-15T03:55:02.927Z,96895.22
2023-05-15T03:58:04.487Z,96893.53
2023-05-15T04:01:06.506Z,96890.88
2023-05-15T04:04:07.923Z,96900.13
2023-05-15T04:07:09.380Z,96890.03
2023-05-15T04:10:10.970Z,96909.63
2023-05-15T04:13:12.599Z,96899.72
2023-05-15T04:16:14.730Z,96901.09
2023-05-15T04:19:16.529Z,96901.06
2023-05-15T04:22:18.033Z,96906.31
2023-05-15T04:25:20.253Z,96899.31
2023-05-15T04:28:21.825Z,96899.16
2023-05-15T04:31:23.836Z,96902.94
2023-05-15T04:34:25.387Z,96904.59
2023-05-15T04:37:27.531Z,96902.22
2023-05-15T04:40:29.122Z,96898.16
2023-05-15T04:43:30.522Z,96885.78
2023-05-15T04:46:34.747Z,96890.34
2023-05-15T04:49:36.322Z,96881.63
2023-05-15T04:52:37.811Z,96891.03
2023-05-15T04:55:40.479Z,96897.88
2023-05-15T04:58:41.905Z,96904.19
2023-05-15T05:01:43.454Z,96900.28
2023-05-15T05:04:45.835Z,96905.16
2023-05-15T05:07:47.377Z,96906.56
2023-05-15T05:10:48.777Z,96898.28
2023-05-15T05:13:51.685Z,96910.03
2023-05-15T05:16:53.247Z,96912.41
2023-05-15T05:19:54.714Z,96919.63
2023-05-15T05:22:56.351Z,96920.75
2023-05-15T05:25:58.988Z,96914.44
2023-05-15T05:29:00.787Z,96928.28
2023-05-15T05:32:02.292Z,96930.00
2023-05-15T05:35:04.144Z,96926.16
2023-05-15T05:38:05.563Z,96927.50
2023-05-15T05:41:07.066Z,96930.59
2023-05-15T05:44:08.646Z,96933.81
2023-05-15T05:47:10.136Z,96923.59
2023-05-15T05:50:11.591Z,96926.28
2023-05-15T05:53:13.123Z,96931.59
2023-05-15T05:56:14.638Z,96924.13
2023-05-15T05:59:16.192Z,96926.75
2023-05-15T06:02:17.840Z,96925.88
2023-05-15T06:05:19.554Z,96917.16
2023-05-15T06:08:21.015Z,96923.97
2023-05-15T06:11:23.781Z,96933.03
2023-05-15T06:14:26.647Z,96928.22
2023-05-15T06:17:28.118Z,96924.72
2023-05-15T06:20:29.666Z,96926.53
2023-05-15T06:23:31.163Z,96921.03
2023-05-15T06:26:32.647Z,96922.84
2023-05-15T06:29:34.229Z,96917.88
2023-05-15T06:32:35.768Z,96910.66
2023-05-15T06:35:37.239Z,96916.97
2023-05-15T06:38:38.727Z,96914.81
2023-05-15T06:41:40.171Z,96915.13
2023-05-15T06:44:47.559Z,96919.25
2023-05-15T06:47:49.064Z,96925.97
2023-05-15T06:50:50.472Z,96922.91
2023-05-15T06:53:51.908Z,96920.38
2023-05-15T06:56:53.296Z,96929.38
2023-05-15T06:59:54.775Z,96931.75
2023-05-15T07:02:56.311Z,96929.34
2023-05-15T07:05:57.945Z,96919.03
2023-05-15T07:08:59.925Z,96928.94
2023-05-15T07:12:01.377Z,96926.97
2023-05-15T07:15:02.865Z,96931.97
2023-05-15T07:18:04.521Z,96925.16
2023-05-15T07:21:06.116Z,96919.56
2023-05-15T07:24:07.834Z,96922.81
2023-05-15T07:27:09.270Z,96929.47
2023-05-15T07:30:11.097Z,96920.72
2023-05-15T07:33:12.583Z,96925.59
2023-05-15T07:36:14.001Z,96919.88
2023-05-15T07:39:16.000Z,96925.34
2023-05-15T07:42:17.557Z,96920.53
2023-05-15T07:45:19.064Z,96923.31
2023-05-15T07:48:20.807Z,96923.34
2023-05-15T07:51:22.445Z,96923.59
2023-05-15T07:54:24.021Z,96913.91
2023-05-15T07:57:28.036Z,96920.44
2023-05-15T08:00:29.596Z,96916.22
2023-05-15T08:03:31.364Z,96915.91
2023-05-15T08:06:33.029Z,96916.28
2023-05-15T08:09:34.547Z,96916.16
2023-05-15T08:12:36.564Z,96906.97
2023-05-15T08:15:38.159Z,96896.94
2023-05-15T08:18:39.662Z,96908.34
2023-05-15T08:21:41.380Z,96898.97
2023-05-15T08:24:42.858Z,96897.47
2023-05-15T08:27:44.307Z,96907.34
2023-05-15T08:30:45.946Z,96903.47
2023-05-15T08:33:47.656Z,96901.81
2023-05-15T08:36:49.182Z,96903.81
2023-05-15T08:39:50.758Z,96898.91
2023-05-15T08:42:57.547Z,96896.31
2023-05-15T08:46:00.211Z,96895.06
2023-05-15T08:49:11.334Z,96894.03
2023-05-15T08:52:12.961Z,96896.63
2023-05-15T08:55:15.269Z,96895.72
2023-05-15T08:58:17.105Z,96883.34
2023-05-15T09:01:18.545Z,96886.50
2023-05-15T09:04:20.122Z,96875.53
2023-05-15T09:07:22.031Z,96872.44
2023-05-15T09:10:23.744Z,96882.13
2023-05-15T09:13:25.203Z,96874.09
2023-05-15T09:16:27.695Z,96876.97
2023-05-15T09:19:29.839Z,96863.91
2023-05-15T09:22:34.416Z,96863.34
2023-05-15T09:25:40.398Z,96863.72
2023-05-15T09:28:52.285Z,96861.53
2023-05-15T09:31:53.889Z,96854.44
2023-05-15T09:34:55.466Z,96853.41
2023-05-15T09:38:01.461Z,96861.94
2023-05-15T09:41:07.215Z,96850.81
2023-05-15T09:44:24.620Z,96852.38
2023-05-15T09:47:26.399Z,96843.91
2023-05-15T09:50:38.785Z,96845.25
2023-05-15T09:53:40.336Z,96838.13
2023-05-15T09:56:46.695Z,96851.66
2023-05-15T09:59:50.811Z,96859.06
2023-05-15T10:02:52.333Z,96854.78
2023-05-15T10:06:01.803Z,96858.56
2023-05-15T10:09:04.783Z,96861.97
2023-05-15T10:12:08.302Z,96850.63
2023-05-15T10:15:11.039Z,96849.09
2023-05-15T10:18:13.879Z,96843.88
2023-05-15T10:21:18.158Z,96844.91
2023-05-15T10:24:21.146Z,96843.56
2023-05-15T10:27:23.773Z,96834.59
2023-05-15T10:30:26.769Z,96827.06
2023-05-15T10:33:29.822Z,96819.97
2023-05-15T10:36:36.089Z,96825.09
2023-05-15T10:39:40.934Z,96824.06
2023-05-15T10:42:44.952Z,96825.78
2023-05-15T10:45:47.558Z,96821.97
2023-05-15T10:48:50.009Z,96818.06
2023-05-15T10:51:52.845Z,96812.84
2023-05-15T10:54:54.655Z,96815.16
2023-05-15T10:57:56.207Z,96808.22
2023-05-15T11:00:57.693Z,96809.69
2023-05-15T11:04:08.879Z,96811.16
2023-05-15T11:07:15.541Z,96808.75
2023-05-15T11:10:38.319Z,96811.00
2023-05-15T11:14:04.718Z,96810.59
2023-05-15T11:17:15.213Z,96805.06
2023-05-15T11:20:16.978Z,96798.50
2023-05-15T11:23:22.155Z,96790.28
2023-05-15T11:26:32.985Z,96784.63
2023-05-15T11:29:35.081Z,96789.16
2023-05-15T11:32:54.667Z,96784.03
2023-05-15T11:36:00.366Z,96781.09
2023-05-15T11:39:01.953Z,96772.41
2023-05-15T11:42:11.498Z,96778.16
2023-05-15T11:45:13.126Z,96761.28
2023-05-15T11:48:16.730Z,96764.22
2023-05-15T11:51:26.281Z,96767.41
2023-05-15T11:54:27.948Z,96763.50
2023-05-15T11:57:29.496Z,96760.56
2023-05-15T12:00:31.262Z,96763.19
2023-05-15T12:03:34.525Z,96770.47
2023-05-15T12:06:36.335Z,96765.16
2023-05-15T12:09:40.020Z,96763.75
2023-05-15T12:12:48.488Z,96760.69
2023-05-15T12:15:50.073Z,96760.78
2023-05-15T12:18:52.892Z,96757.88
2023-05-15T12:21:54.754Z,96749.94
2023-05-15T12:24:59.300Z,96748.56
2023-05-15T12:28:02.149Z,96754.50
2023-05-15T12:31:04.033Z,96752.72
2023-05-15T12:34:05.872Z,96760.19
2023-05-15T12:37:12.418Z,96752.84
2023-05-15T12:40:15.095Z,96752.72
2023-05-15T12:43:16.497Z,96747.03
2023-05-15T12:46:22.613Z,96743.75
2023-05-15T12:49:24.220Z,96742.72
2023-05-15T12:52:29.250Z,96743.72
2023-05-15T12:55:36.046Z,96755.31
2023-05-15T12:58:38.496Z,96763.53
2023-05-15T13:01:42.530Z,96752.63
2023-05-15T13:04:46.697Z,96755.94
2023-05-15T13:07:48.388Z,96758.91
2023-05-15T13:10:59.196Z,96751.81
2023-05-15T13:14:00.961Z,96753.22
2023-05-15T13:17:05.236Z,96742.81
2023-05-15T13:20:07.550Z,96742.53
2023-05-15T13:23:10.748Z,96740.09
2023-05-15T13:26:12.264Z,96747.25
2023-05-15T13:29:13.875Z,96764.69
2023-05-15T13:32:15.497Z,96761.44
2023-05-15T13:35:16.916Z,96773.03
2023-05-15T13:38:20.950Z,96773.28
2023-05-15T13:41:22.473Z,96782.78
2023-05-15T13:44:24.002Z,96773.50
2023-05-15T13:47:26.871Z,96775.81
2023-05-15T13:50:28.475Z,96766.56
2023-05-15T13:53:30.000Z,96764.03
2023-05-15T13:56:31.517Z,96768.31
2023-05-15T13:59:32.952Z,96761.53
2023-05-15T14:02:34.457Z,96760.75
2023-05-15T14:05:36.882Z,96752.94
2023-05-15T14:08:38.447Z,96749.44
2023-05-15T14:11:39.934Z,96739.66
2023-05-15T14:14:41.836Z,96744.47
2023-05-15T14:17:43.409Z,96747.91
2023-05-15T14:20:44.956Z,96756.69
2023-05-15T14:23:46.538Z,96764.59
2023-05-15T14:26:48.327Z,96771.09
2023-05-15T14:29:49.792Z,96776.22
2023-05-15T14:32:51.336Z,96779.16
2023-05-15T14:35:53.254Z,96778.41
2023-05-15T14:38:54.738Z,96782.41
2023-05-15T14:41:56.181Z,96779.78
2023-05-15T14:44:57.664Z,96784.97
2023-05-15T14:47:59.170Z,96790.13
2023-05-15T14:51:01.023Z,96780.00
2023-05-15T14:54:04.304Z,96785.09
2023-05-15T14:57:05.968Z,96787.19
2023-05-15T15:00:08.107Z,96787.28
2023-05-15T15:03:10.761Z,96793.22
2023-05-15T15:06:12.214Z,96787.19
2023-05-15T15:09:13.925Z,96794.81
2023-05-15T15:12:15.408Z,96794.78
2023-05-15T15:15:17.199Z,96793.47
2023-05-15T15:18:20.478Z,96798.16
2023-05-15T15:21:21.939Z,96797.78
2023-05-15T15:24:23.318Z,96804.69
2023-05-15T15:27:24.738Z,96801.81
2023-05-15T15:30:26.389Z,96799.13
2023-05-15T15:33:28.022Z,96801.47
2023-05-15T15:36:29.466Z,96809.16
2023-05-15T15:39:32.609Z,96811.34
2023-05-15T15:42:34.949Z,96819.06
2023-05-15T15:45:36.485Z,96831.41
2023-05-15T15:48:37.923Z,96834.56
2023-05-15T15:51:41.086Z,96828.72
2023-05-15T15:54:51.914Z,96841.66
2023-05-15T15:57:53.736Z,96836.97
2023-05-15T16:00:55.173Z,96839.81
2023-05-15T16:03:56.797Z,96828.72
2023-05-15T16:06:58.225Z,96833.75
2023-05-15T16:10:12.457Z,96834.59
2023-05-15T16:13:14.739Z,96845.78
2023-05-15T16:16:16.481Z,96848.50
2023-05-15T16:19:17.953Z,96849.50
2023-05-15T16:22:19.448Z,96842.13
2023-05-15T16:25:20.996Z,96842.97
2023-05-15T16:28:22.498Z,96842.81
2023-05-15T16:31:24.103Z,96840.28
2023-05-15T16:34:25.681Z,96841.31
2023-05-15T16:37:27.099Z,96841.50
2023-05-15T16:40:28.557Z,96842.69
2023-05-15T16:43:30.206Z,96840.16
2023-05-15T16:46:31.883Z,96854.06
2023-05-15T16:49:33.521Z,96859.94
2023-05-15T16:52:35.750Z,96855.56
2023-05-15T16:55:38.059Z,96861.09
2023-05-15T16:58:42.842Z,96861.25
2023-05-15T17:01:45.852Z,96861.25
2023-05-15T17:04:47.372Z,96861.94
2023-05-15T17:07:48.831Z,96865.97
2023-05-15T17:10:50.931Z,96866.63
2023-05-15T17:13:52.353Z,96864.94
2023-05-15T17:16:53.777Z,96862.59
2023-05-15T17:19:55.820Z,96869.78
2023-05-15T17:22:58.010Z,96863.59
2023-05-15T17:25:59.500Z,96861.94
2023-05-15T17:29:01.192Z,96868.44
2023-05-15T17:32:03.008Z,96871.47
2023-05-15T17:35:05.240Z,96874.97
2023-05-15T17:38:08.594Z,96874.63
2023-05-15T17:41:10.027Z,96881.81
2023-05-15T17:44:12.030Z,96877.47
2023-05-15T17:47:13.527Z,96886.69
2023-05-15T17:50:15.028Z,96881.81
2023-05-15T17:53:16.568Z,96879.50
2023-05-15T17:56:18.270Z,96888.00
2023-05-15T17:59:19.706Z,96884.16
2023-05-15T18:02:21.303Z,96887.84
2023-05-15T18:05:23.506Z,96901.03
2023-05-15T18:08:25.193Z,96898.84
2023-05-15T18:11:27.168Z,96897.00
2023-05-15T18:14:28.616Z,96903.03
2023-05-15T18:17:30.450Z,96905.34
2023-05-15T18:20:32.023Z,96910.03
2023-05-15T18:23:33.475Z,96919.53
2023-05-15T18:26:34.900Z,96922.19
2023-05-15T18:29:36.355Z,96925.38
2023-05-15T18:32:37.926Z,96927.88
2023-05-15T18:35:39.544Z,96933.03
2023-05-15T18:38:40.974Z,96932.84
2023-05-15T18:41:42.487Z,96939.06
2023-05-15T18:44:44.457Z,96933.69
2023-05-15T18:47:45.948Z,96934.50
2023-05-15T18:50:47.551Z,96943.00
2023-05-15T18:53:49.090Z,96943.16
2023-05-15T18:56:50.765Z,96949.34
2023-05-15T18:59:52.738Z,96954.56
2023-05-15T19:02:54.344Z,96952.81
2023-05-15T19:05:58.388Z,96961.00
2023-05-15T19:08:59.943Z,96965.75
2023-05-15T19:12:02.614Z,96968.72
2023-05-15T19:15:04.529Z,96964.84
2023-05-15T19:18:06.484Z,96967.91
2023-05-15T19:21:07.986Z,96972.59
2023-05-15T19:24:09.567Z,96981.34
2023-05-15T19:27:11.462Z,96984.03
2023-05-15T19:30:12.994Z,96984.03
2023-05-15T19:33:17.590Z,96988.25
2023-05-15T19:36:19.138Z,96986.06
2023-05-15T19:39:20.791Z,96981.97
2023-05-15T19:42:22.226Z,96993.47
2023-05-15T19:45:24.097Z,96994.41
2023-05-15T19:48:25.553Z,96984.09
2023-05-15T19:51:28.871Z,97000.16
2023-05-15T19:54:30.429Z,96989.25
2023-05-15T19:57:31.938Z,96989.97
2023-05-15T20:00:33.511Z,96984.88
2023-05-15T20:03:35.171Z,96989.47
2023-05-15T20:06:36.841Z,96980.50
2023-05-15T20:09:39.479Z,96986.84
2023-05-15T20:12:41.111Z,96991.81
2023-05-15T20:15:42.714Z,96986.06
2023-05-15T20:18:44.877Z,96982.69
2023-05-15T20:21:46.399Z,96991.25
2023-05-15T20:24:48.103Z,96988.00
2023-05-15T20:27:49.722Z,96992.59
2023-05-15T20:30:52.451Z,96984.22
2023-05-15T20:33:57.049Z,96990.56
2023-05-15T20:36:59.249Z,96985.69
2023-05-15T20:40:00.769Z,96994.72
2023-05-15T20:43:02.373Z,96993.72
2023-05-15T20:46:04.082Z,97000.00
2023-05-15T20:49:06.051Z,96993.50
2023-05-15T20:52:07.861Z,96995.03
2023-05-15T20:55:22.740Z,97000.75
2023-05-15T20:58:27.219Z,96996.16
2023-05-15T21:01:28.962Z,96995.25
2023-05-15T21:04:31.161Z,96995.69
2023-05-15T21:07:32.772Z,96998.72
2023-05-15T21:10:34.232Z,97002.91
2023-05-15T21:13:35.672Z,97001.78
2023-05-15T21:16:37.259Z,97006.75
2023-05-15T21:19:38.746Z,97003.91
2023-05-15T21:22:41.065Z,97001.09
2023-05-15T21:25:42.646Z,96994.84
2023-05-15T21:28:44.121Z,96998.72
2023-05-15T21:31:45.782Z,96989.69
2023-05-15T21:34:47.491Z,96988.28
2023-05-15T21:37:48.875Z,96994.88
2023-05-15T21:40:50.431Z,96996.25
2023-05-15T21:43:51.932Z,96996.75
2023-05-15T21:46:53.435Z,97001.50
2023-05-15T21:49:54.846Z,97001.59
2023-05-15T21:52:57.154Z,96986.31
2023-05-15T21:55:59.823Z,96989.88
2023-05-15T21:59:01.270Z,97001.66
2023-05-15T22:02:02.854Z,97009.66
2023-05-15T22:05:04.794Z,97009.47
2023-05-15T22:08:06.335Z,97007.47
2023-05-15T22:11:07.856Z,97009.91
2023-05-15T22:14:09.862Z,97009.56
2023-05-15T22:17:12.364Z,97008.44
2023-05-15T22:20:14.042Z,97005.34
2023-05-15T22:23:15.538Z,97010.81
2023-05-15T22:26:19.912Z,97006.88
2023-05-15T22:29:22.146Z,97008.25
2023-05-15T22:32:23.828Z,97009.00
2023-05-15T22:35:27.992Z,97016.69
2023-05-15T22:38:30.302Z,97015.53
2023-05-15T22:41:32.027Z,97010.56
2023-05-15T22:44:33.599Z,97017.91
2023-05-15T22:47:35.074Z,97008.00
2023-05-15T22:50:36.844Z,97007.50
2023-05-15T22:53:38.673Z,97008.91
2023-05-15T22:56:40.162Z,97001.47
2023-05-15T22:59:42.106Z,97003.47
2023-05-15T23:02:44.945Z,96996.72
2023-05-15T23:05:46.946Z,96998.13
2023-05-15T23:08:49.602Z,96992.91
2023-05-15T23:11:51.614Z,96993.25
2023-05-15T23:14:53.044Z,96992.47
2023-05-15T23:17:54.523Z,96986.16
2023-05-15T23:20:56.310Z,96992.00
2023-05-15T23:23:57.889Z,96984.28
2023-05-15T23:26:59.368Z,96988.50
2023-05-15T23:30:01.041Z,96989.56
2023-05-15T23:33:02.649Z,96995.63
2023-05-15T23:36:04.395Z,96995.81
2023-05-15T23:39:05.851Z,96995.16
2023-05-15T23:42:11.677Z,96992.22
2023-05-15T23:45:13.905Z,96997.41
2023-05-15T23:48:16.174Z,97001.72
2023-05-15T23:51:17.709Z,96999.91
2023-05-15T23:54:19.185Z,97000.38
2023-05-15T23:57:20.744Z,96995.47
